Time;durP1;ratioP1;P1;durP2;ratioP2;P2;SDS_P1;SDS_P2;PMS_P1;PMS_P2;Temp;Humidity;BMP_temperature;BMP_pressure;BME280_temperature;BME280_humidity;BME280_pressure;Samples;Min_cycle;Max_cycle;Signal;HPM_P1;HPM_P2
2021/01/22 00:00:29;;;;;;;3.67;2.75;;;7.90;99.90;;;7.05;90.48;98803.84;4106754;28;20142;-76
2021/01/22 00:02:30;;;;;;;5.45;2.88;;;7.80;99.90;;;7.12;90.72;98804.75;4125786;28;20409;-76
2021/01/22 00:04:31;;;;;;;3.38;2.70;;;7.80;99.90;;;7.06;91.25;98813.34;4118019;28;20027;-76
2021/01/22 00:06:32;;;;;;;5.18;2.80;;;7.70;99.90;;;7.07;91.84;98816.78;4105839;28;20035;-76
2021/01/22 00:08:33;;;;;;;3.72;2.75;;;7.70;99.90;;;7.09;92.21;98799.88;4106484;28;20031;-76
2021/01/22 00:10:34;;;;;;;4.05;2.95;;;7.70;99.90;;;7.11;92.10;98792.63;4111471;28;20091;-75
2021/01/22 00:12:35;;;;;;;4.25;3.13;;;7.70;99.90;;;7.09;91.88;98780.72;4118138;28;20030;-76
2021/01/22 00:14:36;;;;;;;4.38;3.15;;;7.70;99.90;;;7.14;91.86;98797.53;4115389;28;20110;-75
2021/01/22 00:16:37;;;;;;;5.32;2.50;;;7.70;99.90;;;6.91;92.27;98778.47;4121654;28;20031;-75
2021/01/22 00:18:38;;;;;;;3.17;2.53;;;7.60;99.90;;;6.97;92.45;98782.97;4118001;28;20027;-75
2021/01/22 00:20:39;;;;;;;3.30;2.58;;;7.70;99.90;;;7.13;92.39;98803.78;4118923;28;20034;-75
2021/01/22 00:22:40;;;;;;;3.53;2.60;;;7.70;99.90;;;7.01;92.69;98793.91;4118134;28;20050;-75
2021/01/22 00:24:40;;;;;;;3.08;2.67;;;7.60;99.90;;;7.00;93.06;98785.25;4134255;28;20049;-76
2021/01/22 00:26:41;;;;;;;3.67;2.90;;;7.70;99.90;;;7.07;93.04;98803.69;4109155;28;20027;-76
2021/01/22 00:28:42;;;;;;;4.32;2.80;;;7.70;99.90;;;7.06;92.72;98808.09;4109374;28;20402;-76
2021/01/22 00:30:43;;;;;;;3.45;2.63;;;7.70;99.90;;;6.99;93.42;98796.72;4118159;28;20027;-75
2021/01/22 00:32:44;;;;;;;5.20;3.33;;;7.60;99.90;;;7.21;93.63;98816.78;4117422;28;20027;-76
2021/01/22 00:34:47;;;;;;;4.60;3.25;;;7.70;99.90;;;7.21;93.21;98819.41;4108871;28;20031;-75
2021/01/22 00:36:49;;;;;;;3.72;2.63;;;7.70;99.90;;;7.18;93.00;98816.34;4118239;28;20506;-75
2021/01/22 00:38:50;;;;;;;3.15;2.53;;;7.80;99.90;;;7.14;92.96;98817.69;4134240;28;20033;-75
2021/01/22 00:40:51;;;;;;;3.42;3.03;;;7.70;99.90;;;7.09;93.05;98817.41;4118066;28;20047;-75
2021/01/22 00:42:52;;;;;;;2.47;2.28;;;7.70;99.90;;;7.10;93.49;98817.25;4113869;28;20499;-75
2021/01/22 00:44:53;;;;;;;3.25;2.30;;;7.70;99.90;;;7.10;91.40;98813.81;4110570;28;20046;-75
2021/01/22 00:46:54;;;;;;;2.50;2.30;;;7.70;99.90;;;7.12;91.88;98814.44;4106460;28;20459;-75
2021/01/22 00:48:54;;;;;;;2.97;2.67;;;7.70;99.90;;;7.14;91.03;98809.81;4118357;28;20066;-76
2021/01/22 00:50:55;;;;;;;2.92;2.60;;;7.70;99.90;;;7.26;90.85;98808.38;4090956;29;20448;-76
2021/01/22 00:52:56;;;;;;;2.72;2.05;;;7.80;99.90;;;7.23;90.81;98824.47;4129947;28;20066;-76
2021/01/22 00:54:57;;;;;;;3.20;1.80;;;7.80;99.90;;;7.27;90.11;98812.63;4136256;28;20031;-76
2021/01/22 00:56:58;;;;;;;3.13;2.00;;;7.80;99.90;;;7.20;90.40;98817.78;4120595;28;20082;-76
2021/01/22 00:58:59;;;;;;;2.08;1.88;;;7.80;99.90;;;7.14;91.07;98821.13;4136998;28;20027;-76
2021/01/22 01:01:00;;;;;;;1.95;1.85;;;7.80;99.90;;;7.26;90.79;98833.81;4120888;28;20034;-76
2021/01/22 01:03:01;;;;;;;2.30;2.03;;;7.80;99.90;;;7.16;89.86;98820.94;4120864;28;20513;-75
2021/01/22 01:05:04;;;;;;;4.15;1.98;;;7.80;99.90;;;7.16;90.47;98813.09;4104786;28;20027;-75
2021/01/22 01:07:04;;;;;;;2.00;1.80;;;7.80;99.90;;;7.20;89.15;98803.84;4104913;28;20448;-75
2021/01/22 01:09:05;;;;;;;1.70;1.52;;;7.80;99.90;;;7.11;89.22;98797.06;4104985;28;20038;-75
2021/01/22 01:11:06;;;;;;;3.47;2.17;;;7.80;99.90;;;7.16;88.92;98808.66;4104561;28;20126;-75
2021/01/22 01:13:07;;;;;;;2.38;1.98;;;7.80;99.90;;;7.09;89.42;98812.16;4120676;28;20035;-75
2021/01/22 01:15:09;;;;;;;2.15;1.95;;;7.80;99.90;;;7.18;89.90;98806.66;4109243;28;20026;-75
2021/01/22 01:17:10;;;;;;;3.25;2.00;;;7.80;99.90;;;6.99;90.69;98794.09;4112305;28;20034;-76
2021/01/22 01:19:11;;;;;;;3.08;1.70;;;7.80;99.90;;;7.08;90.76;98805.28;4120726;28;20190;-75
2021/01/22 01:21:13;;;;;;;4.05;2.10;;;7.70;99.90;;;7.02;91.29;98812.06;4120655;28;20027;-76
2021/01/22 01:23:29;;;;;;;3.45;2.40;;;7.70;99.90;;;6.82;91.91;98804.91;4120944;28;20023;-76
2021/01/22 01:25:30;;;;;;;2.65;2.10;;;7.70;99.90;;;6.80;91.40;98796.44;4120554;28;20045;-75
2021/01/22 01:27:31;;;;;;;2.60;2.05;;;7.70;99.90;;;6.88;91.76;98797.16;4121656;28;20035;-75
2021/01/22 01:29:32;;;;;;;2.50;2.30;;;7.70;99.90;;;6.94;91.91;98808.72;4120450;28;20031;-75
2021/01/22 01:31:34;;;;;;;4.15;2.35;;;7.60;99.90;;;6.95;91.21;98799.88;4114583;28;20032;-75
2021/01/22 01:33:34;;;;;;;3.50;2.53;;;7.70;99.90;;;6.87;91.69;98792.13;4120557;28;20138;-76
2021/01/22 01:35:36;;;;;;;5.65;2.20;;;7.70;99.90;;;6.93;91.82;98791.41;4104540;28;20039;-75
2021/01/22 01:37:37;;;;;;;2.67;2.25;;;7.60;99.90;;;6.74;92.84;98797.16;4105475;28;20060;-75
2021/01/22 01:39:38;;;;;;;2.90;2.60;;;7.60;99.90;;;6.83;93.33;98811.81;4104604;28;20122;-76
2021/01/22 01:41:39;;;;;;;4.72;2.30;;;7.60;99.90;;;6.93;92.33;98809.75;4088216;29;20016;-76
2021/01/22 01:43:40;;;;;;;3.03;2.40;;;7.60;99.90;;;6.83;93.14;98812.63;4104658;28;20027;-75
2021/01/22 01:45:41;;;;;;;3.65;2.55;;;7.50;99.90;;;6.88;93.34;98812.06;4104305;28;20063;-75
2021/01/22 01:47:43;;;;;;;2.75;2.42;;;7.60;99.90;;;6.89;93.99;98813.72;4104284;28;20027;-76
2021/01/22 01:49:44;;;;;;;4.38;3.05;;;7.60;99.90;;;6.89;93.81;98811.09;4112928;28;20101;-75
2021/01/22 01:51:45;;;;;;;4.05;2.97;;;7.50;99.90;;;6.84;93.92;98821.31;4136146;28;20040;-75
2021/01/22 01:53:47;;;;;;;3.47;2.35;;;7.50;99.90;;;7.05;92.85;98821.38;4119783;28;20125;-75
2021/01/22 01:55:48;;;;;;;2.47;2.28;;;7.50;99.90;;;6.90;93.37;98810.09;4115093;28;20047;-75
2021/01/22 01:57:49;;;;;;;4.20;2.80;;;7.60;99.90;;;6.68;94.11;98794.25;4103981;28;20043;-75
2021/01/22 01:59:50;;;;;;;2.33;2.13;;;7.50;99.90;;;6.89;93.98;98797.97;4104298;28;20031;-75
2021/01/22 02:01:52;;;;;;;4.38;3.22;;;7.50;99.90;;;6.95;93.92;98810.38;4103754;28;20062;-75
2021/01/22 02:03:54;;;;;;;3.08;2.72;;;7.50;99.90;;;6.88;93.79;98806.81;4104198;28;20033;-75
2021/01/22 02:05:55;;;;;;;4.18;2.20;;;7.50;99.90;;;6.81;94.47;98805.94;4105181;28;20027;-75
2021/01/22 02:07:56;;;;;;;2.72;2.47;;;7.50;99.90;;;6.85;95.12;98833.38;4103947;28;20407;-75
2021/01/22 02:09:57;;;;;;;4.57;3.35;;;7.40;99.90;;;6.75;95.11;98819.75;4103786;28;20598;-75
2021/01/22 02:11:59;;;;;;;2.45;2.25;;;7.40;99.90;;;6.81;95.11;98826.91;4103749;28;20034;-75
2021/01/22 02:14:01;;;;;;;5.10;3.38;;;7.40;99.90;;;6.77;95.51;98833.47;4103893;28;20489;-75
2021/01/22 02:16:02;;;;;;;3.22;2.92;;;7.40;99.90;;;6.84;94.82;98839.66;4119761;28;20081;-76
2021/01/22 02:18:05;;;;;;;4.57;2.42;;;7.40;99.90;;;6.90;94.51;98844.16;4117799;28;20034;-75
2021/01/22 02:20:24;;;;;;;4.05;2.17;;;7.40;99.90;;;6.99;93.44;98858.81;4115310;28;20059;-76
2021/01/22 02:22:25;;;;;;;2.50;2.22;;;7.50;99.90;;;6.79;94.24;98850.66;4103623;28;20047;-76
2021/01/22 02:24:26;;;;;;;3.15;2.55;;;7.40;99.90;;;6.71;94.94;98852.53;4104307;28;20034;-75
2021/01/22 02:26:29;;;;;;;3.35;2.53;;;7.40;99.90;;;6.69;95.68;98861.38;4103340;29;20028;-75
2021/01/22 02:28:30;;;;;;;3.73;2.10;;;7.30;99.90;;;6.59;95.91;98844.28;4128027;28;20027;-76
2021/01/22 02:30:31;;;;;;;2.72;2.30;;;7.30;99.90;;;6.61;95.82;98850.97;4098337;29;20071;-75
2021/01/22 02:32:34;;;;;;;2.10;1.90;;;7.30;99.90;;;6.52;95.57;98844.16;4119641;28;20461;-75
2021/01/22 02:34:39;;;;;;;2.50;2.17;;;7.30;99.90;;;6.59;95.96;98860.00;4107835;28;20030;-75
2021/01/22 02:36:45;;;;;;;2.40;2.20;;;7.30;99.90;;;6.57;95.29;98865.41;4127234;28;20033;-75
2021/01/22 02:38:48;;;;;;;3.33;2.17;;;7.30;99.90;;;6.73;95.19;98874.13;4103471;28;20031;-76
2021/01/22 02:40:50;;;;;;;2.95;2.40;;;7.30;99.90;;;6.67;95.36;98865.97;4104414;28;20055;-75
2021/01/22 02:42:52;;;;;;;2.25;2.05;;;7.30;99.90;;;6.73;94.57;98874.13;4092791;28;20490;-75
2021/01/22 02:44:56;;;;;;;2.30;2.10;;;7.30;99.90;;;6.63;95.20;98875.19;4119232;28;20066;-75
2021/01/22 02:47:04;;;;;;;3.42;2.38;;;7.20;99.90;;;6.53;95.50;98869.38;4135280;28;20469;-75
2021/01/22 02:49:05;;;;;;;2.92;2.25;;;7.20;99.90;;;6.52;95.15;98866.91;4087857;29;20035;-75
2021/01/22 02:51:14;;;;;;;2.83;1.90;;;7.20;99.90;;;6.52;95.08;98865.13;4119266;28;20533;-75
2021/01/22 02:53:15;;;;;;;2.53;2.30;;;7.10;99.90;;;6.45;95.32;98874.66;4133310;28;20069;-75
2021/01/22 02:55:16;;;;;;;2.40;2.08;;;7.00;99.90;;;6.32;95.74;98860.53;4119078;28;20482;-75
2021/01/22 02:58:15;;;;;;;3.20;2.22;;;7.00;99.90;;;6.20;95.82;98854.06;4120160;28;20030;-75
2021/01/22 03:00:28;;;;;;;2.15;1.95;;;6.90;99.90;;;6.27;95.13;98855.84;4094216;28;20078;-75
2021/01/22 03:02:57;;;;;;;3.03;1.95;;;6.80;99.90;;;5.97;95.19;98859.31;4119301;28;20072;-75
2021/01/22 03:05:00;;;;;;;2.55;2.15;;;6.60;99.90;;;5.99;95.17;98839.81;4119053;28;20042;-75
2021/01/22 03:07:04;;;;;;;2.25;2.05;;;6.50;99.90;;;6.20;93.03;98826.09;4118990;28;20109;-75
2021/01/22 03:09:08;;;;;;;3.25;2.22;;;6.60;99.90;;;6.08;93.10;98832.72;4135013;28;20026;-75
2021/01/22 03:11:09;;;;;;;;;;;6.50;99.90;;;5.86;93.82;98833.50;4119245;28;20030;-75
2021/01/22 03:13:11;;;;;;;2.10;1.90;;;6.50;99.90;;;5.87;94.57;98845.63;4118956;28;19916;-75
2021/01/22 03:15:17;;;;;;;2.80;2.40;;;6.40;99.90;;;5.78;94.58;98841.38;4134872;28;20030;-75
2021/01/22 03:17:19;;;;;;;3.45;2.00;;;6.30;99.90;;;5.88;94.60;98860.34;4102805;28;20135;-75
2021/01/22 03:19:20;;;;;;;3.75;2.15;;;6.30;99.90;;;5.92;94.16;98859.81;4134978;28;20034;-75
2021/01/22 03:21:20;;;;;;;2.90;2.33;;;6.30;99.90;;;5.88;94.16;98865.56;4105817;28;20027;-75
2021/01/22 03:23:21;;;;;;;2.10;1.90;;;6.30;99.90;;;5.89;94.62;98859.31;4118954;28;20026;-75
2021/01/22 03:25:22;;;;;;;4.07;2.03;;;6.30;99.90;;;5.90;93.64;98871.44;4111271;28;20594;-75
2021/01/22 03:27:23;;;;;;;2.28;2.08;;;6.30;99.90;;;5.87;93.60;98877.00;4102527;29;20023;-75
2021/01/22 03:29:24;;;;;;;6.72;2.67;;;6.30;99.90;;;5.89;93.10;98895.97;4119882;28;20027;-75
2021/01/22 03:31:25;;;;;;;2.58;2.10;;;6.30;99.90;;;5.74;92.99;98895.00;4120067;28;20033;-75
2021/01/22 03:33:26;;;;;;;3.42;2.80;;;6.30;99.90;;;5.74;93.32;98913.31;4118668;28;20030;-75
2021/01/22 03:35:28;;;;;;;2.55;2.35;;;6.30;99.90;;;5.63;93.60;98890.16;4102703;29;20169;-75
2021/01/22 03:37:29;;;;;;;3.13;2.20;;;6.20;99.90;;;5.61;93.93;98910.44;4119678;28;20414;-75
2021/01/22 03:39:34;;;;;;;2.97;2.78;;;6.30;99.90;;;5.74;93.32;98916.75;4086925;29;20036;-75
2021/01/22 03:41:35;;;;;;;5.78;2.70;;;6.30;99.90;;;5.69;93.35;98916.47;4102620;28;20506;-75
2021/01/22 03:43:35;;;;;;;2.50;2.30;;;6.30;99.90;;;5.84;94.81;98924.41;4102706;28;20087;-75
2021/01/22 03:45:36;;;;;;;2.88;2.67;;;6.40;99.90;;;5.96;94.60;98920.47;4118534;28;20018;-75
2021/01/22 03:47:37;;;;;;;3.08;2.75;;;6.40;99.90;;;5.95;94.24;98905.75;4102665;28;20034;-75
2021/01/22 03:49:38;;;;;;;4.95;3.70;;;6.50;99.90;;;6.16;93.26;98911.19;4118738;28;20027;-75
2021/01/22 03:51:39;;;;;;;2.50;2.30;;;6.60;99.90;;;6.08;93.66;98911.25;4114129;28;20027;-75
2021/01/22 03:53:40;;;;;;;4.80;2.97;;;6.60;99.90;;;6.08;94.40;98901.59;4134333;28;20117;-75
2021/01/22 03:55:41;;;;;;;3.55;2.92;;;6.70;99.90;;;6.21;93.22;98915.94;4115342;28;20368;-75
2021/01/22 03:57:42;;;;;;;5.22;3.92;;;6.70;99.90;;;6.29;93.92;98916.69;4109828;28;20074;-75
2021/01/22 03:59:43;;;;;;;3.40;3.10;;;6.70;99.90;;;6.27;93.80;98900.34;4107975;28;20027;-75
2021/01/22 04:01:43;;;;;;;3.28;3.00;;;6.70;99.90;;;6.30;93.58;98925.38;4103661;28;20027;-75
2021/01/22 04:03:45;;;;;;;4.72;3.95;;;6.70;99.90;;;6.16;94.17;98913.81;4102705;28;20487;-75
2021/01/22 04:05:46;;;;;;;8.50;4.72;;;6.70;99.90;;;6.11;94.13;98924.00;4102749;28;20023;-75
2021/01/22 04:07:46;;;;;;;4.93;4.45;;;6.70;99.90;;;6.11;94.28;98931.84;4118518;28;20147;-75
2021/01/22 04:09:47;;;;;;;5.30;4.80;;;6.60;99.90;;;6.16;94.24;98944.41;4115853;28;20042;-75
2021/01/22 04:11:48;;;;;;;8.90;6.25;;;6.60;99.90;;;6.24;93.63;98933.91;4106338;28;20019;-74
2021/01/22 04:13:49;;;;;;;5.70;5.20;;;6.70;99.90;;;6.19;92.95;98916.09;4118516;28;20038;-75
2021/01/22 04:15:50;;;;;;;6.97;5.30;;;6.60;99.90;;;6.06;93.24;98903.56;4134475;28;20514;-75
2021/01/22 04:17:51;;;;;;;7.38;6.68;;;6.60;99.90;;;6.03;93.72;98914.38;4118377;28;20038;-75
2021/01/22 04:19:51;;;;;;;5.70;5.20;;;6.60;99.90;;;5.99;94.66;98918.31;4118564;28;20034;-75
2021/01/22 04:21:55;;;;;;;7.07;5.35;;;6.50;99.90;;;6.06;94.39;98924.50;4112163;28;20031;-75
2021/01/22 04:23:56;;;;;;;5.93;5.27;;;6.50;99.90;;;6.04;94.64;98926.47;4102594;28;20393;-75
2021/01/22 04:25:57;;;;;;;5.68;5.15;;;6.50;99.90;;;6.05;94.16;98911.59;4114976;28;20023;-75
2021/01/22 04:27:58;;;;;;;6.20;5.60;;;6.50;99.90;;;6.02;94.45;98923.22;4134597;28;20097;-75
2021/01/22 04:29:58;;;;;;;7.63;6.13;;;6.50;99.90;;;6.07;94.03;98925.31;4120721;28;20118;-75
2021/01/22 04:31:59;;;;;;;5.10;4.60;;;6.50;99.90;;;6.05;94.37;98928.13;4121524;28;20093;-75
2021/01/22 04:34:00;;;;;;;5.60;5.10;;;6.50;99.90;;;6.05;94.14;98922.88;4137570;28;20022;-75
2021/01/22 04:36:01;;;;;;;5.07;4.68;;;6.50;99.90;;;6.03;94.63;98926.66;4105288;29;20035;-75
2021/01/22 04:38:02;;;;;;;5.50;5.00;;;6.50;99.90;;;6.08;94.61;98932.19;4121290;28;20063;-75
2021/01/22 04:40:04;;;;;;;5.20;4.70;;;6.50;99.90;;;6.12;94.39;98933.47;4113084;28;20027;-75
2021/01/22 04:42:05;;;;;;;5.15;4.65;;;6.50;99.90;;;6.12;93.64;98917.78;4105065;28;20103;-75
2021/01/22 04:44:06;;;;;;;7.22;4.45;;;6.50;99.90;;;5.91;94.17;98920.97;4089387;29;20027;-74
2021/01/22 04:46:07;;;;;;;6.88;4.55;;;6.50;99.90;;;6.03;94.14;98935.31;4105567;28;20053;-75
2021/01/22 04:48:09;;;;;;;5.68;5.18;;;6.50;99.90;;;5.96;94.51;98929.13;4105245;28;20034;-75
2021/01/22 04:50:11;;;;;;;5.70;5.10;;;6.50;99.90;;;5.90;94.88;98929.00;4106450;28;20027;-75
2021/01/22 04:52:13;;;;;;;5.40;4.90;;;6.50;99.90;;;6.01;94.50;98957.41;4111288;28;20065;-75
2021/01/22 04:54:42;;;;;;;5.63;4.90;;;6.50;99.90;;;6.01;94.92;98947.75;4137141;28;20042;-75
2021/01/22 04:56:46;;;;;;;5.35;4.78;;;6.50;99.90;;;6.01;94.40;98941.69;4092977;28;20036;-75
2021/01/22 04:58:51;;;;;;;6.00;4.88;;;6.50;99.90;;;6.08;94.16;98947.88;4121328;28;20515;-75
2021/01/22 05:00:52;;;;;;;6.13;4.75;;;6.60;99.90;;;6.04;94.26;98947.41;4136737;28;20038;-75
2021/01/22 05:02:54;;;;;;;4.55;4.15;;;6.60;99.90;;;6.20;93.60;98958.78;4120773;28;20022;-75
2021/01/22 05:04:57;;;;;;;5.68;4.15;;;6.60;99.90;;;6.18;93.46;98955.53;4137036;28;20057;-75
2021/01/22 05:06:58;;;;;;;4.72;4.25;;;6.60;99.90;;;6.21;93.29;98953.41;4116554;28;20023;-75
2021/01/22 05:08:59;;;;;;;4.80;4.40;;;6.70;99.90;;;6.10;93.48;98953.75;4104717;28;20039;-75
2021/01/22 05:11:00;;;;;;;6.40;4.32;;;6.60;99.90;;;6.14;93.81;98957.69;4104702;28;20038;-75
2021/01/22 05:13:01;;;;;;;4.80;4.07;;;6.60;99.90;;;6.12;94.10;98957.84;4120667;28;20125;-75
2021/01/22 05:15:26;;;;;;;7.00;4.15;;;6.60;99.90;;;6.12;93.71;98955.22;4104899;28;20526;-74
2021/01/22 05:17:27;;;;;;;6.75;4.10;;;6.60;99.90;;;6.21;93.41;98958.63;4120557;28;20038;-75
2021/01/22 05:19:28;;;;;;;4.55;3.65;;;6.60;99.90;;;6.29;92.62;98971.69;4104668;28;20031;-75
2021/01/22 05:21:40;;;;;;;5.97;4.43;;;6.70;99.90;;;6.23;92.36;98961.06;4104713;28;20027;-75
2021/01/22 05:23:42;;;;;;;3.88;3.20;;;6.70;99.90;;;6.14;92.60;98957.69;4105852;28;20027;-75
2021/01/22 05:26:02;;;;;;;4.32;3.92;;;6.70;99.90;;;6.32;91.93;98978.38;4115380;28;20038;-75
2021/01/22 05:28:03;;;;;;;3.30;3.00;;;6.70;99.90;;;6.26;92.07;98971.19;4120644;28;20426;-75
2021/01/22 05:30:05;;;;;;;3.67;2.88;;;6.70;99.90;;;6.19;91.97;98973.69;4120580;28;20027;-75
2021/01/22 05:32:30;;;;;;;4.93;3.15;;;6.70;99.90;;;6.12;91.94;98980.59;4120315;28;20038;-75
2021/01/22 05:34:47;;;;;;;4.07;3.05;;;6.70;99.90;;;5.94;92.27;98975.56;4120812;28;20506;-75
2021/01/22 05:36:49;;;;;;;5.05;2.95;;;6.60;99.90;;;5.89;93.54;98984.91;4120286;28;20035;-75
2021/01/22 05:38:59;;;;;;;4.03;2.50;;;6.50;99.90;;;5.73;93.79;98987.56;4108223;28;20040;-75
2021/01/22 05:41:05;;;;;;;5.50;3.22;;;6.50;99.90;;;5.88;93.72;98994.59;4107667;28;20275;-75
2021/01/22 05:43:05;;;;;;;4.13;3.03;;;6.40;99.90;;;5.85;93.20;98983.63;4120211;28;20030;-75
2021/01/22 05:45:07;;;;;;;4.15;3.08;;;6.40;99.90;;;5.79;93.41;98987.72;4120209;28;20416;-75
2021/01/22 05:47:10;;;;;;;3.92;2.60;;;6.40;99.90;;;5.77;93.93;98991.47;4136377;28;20080;-75
2021/01/22 05:49:12;;;;;;;3.50;3.20;;;6.40;99.90;;;5.71;94.79;99003.44;4136457;28;20121;-75
2021/01/22 05:51:14;;;;;;;5.15;3.33;;;6.30;99.90;;;5.84;94.36;99002.91;4113502;28;20032;-75
2021/01/22 05:53:18;;;;;;;4.32;2.97;;;6.40;99.90;;;5.72;94.81;99010.31;4118461;28;20529;-75
2021/01/22 05:55:22;;;;;;;4.85;3.10;;;6.40;99.90;;;5.70;94.76;99001.81;4105548;28;20031;-75
2021/01/22 05:57:24;;;;;;;;;;;6.30;99.90;;;5.71;94.93;99013.06;4104348;28;20392;-75
2021/01/22 05:59:25;;;;;;;3.75;3.08;;;6.30;99.90;;;5.73;95.39;99005.88;4104157;28;19910;-75
2021/01/22 06:01:27;;;;;;;3.80;3.45;;;6.40;99.90;;;5.88;94.80;99012.09;4104026;28;20118;-75
2021/01/22 06:03:28;;;;;;;4.90;3.85;;;6.40;99.90;;;5.84;94.77;99001.13;4103946;28;20032;-75
2021/01/22 06:05:29;;;;;;;3.67;3.20;;;6.40;99.90;;;5.83;95.09;99002.09;4104043;28;20031;-75
2021/01/22 06:07:30;;;;;;;5.32;3.42;;;6.40;99.90;;;5.97;94.08;99013.69;4105264;28;20506;-75
2021/01/22 06:09:33;;;;;;;4.28;3.20;;;6.40;99.90;;;6.00;93.70;99008.13;4104001;28;20031;-75
2021/01/22 06:11:35;;;;;;;3.15;2.83;;;6.50;99.90;;;6.00;93.88;99011.53;4103812;28;20027;-75
2021/01/22 06:13:38;;;;;;;3.72;2.75;;;6.50;99.90;;;5.90;94.20;99010.94;4103942;28;20039;-75
2021/01/22 06:15:41;;;;;;;3.78;2.95;;;6.50;99.90;;;6.06;93.89;99028.41;4103901;28;20027;-74
2021/01/22 06:17:48;;;;;;;5.28;2.92;;;6.50;99.90;;;6.16;92.06;99029.00;4103914;28;20074;-75
2021/01/22 06:19:49;;;;;;;3.10;2.38;;;6.50;99.90;;;6.30;90.72;99024.88;4103687;28;20023;-75
2021/01/22 06:22:03;;;;;;;2.65;2.08;;;6.60;99.90;;;6.39;90.93;99029.06;4103856;28;20038;-75
2021/01/22 06:24:06;;;;;;;4.17;2.53;;;6.60;99.90;;;6.22;90.51;99017.84;4103749;28;20031;-74
2021/01/22 06:26:08;;;;;;;3.35;2.70;;;6.60;99.90;;;6.36;89.88;99022.34;4117547;28;20302;-75
2021/01/22 06:28:11;;;;;;;5.80;2.72;;;6.70;99.90;;;6.46;89.64;99030.00;4114898;28;20065;-75
2021/01/22 06:30:14;;;;;;;4.60;3.03;;;6.70;99.90;;;6.37;89.66;99025.78;4111649;28;20030;-75
2021/01/22 06:32:16;;;;;;;3.60;2.50;;;6.70;99.90;;;6.19;90.44;99022.59;4119315;28;20026;-75
2021/01/22 06:34:18;;;;;;;4.63;3.22;;;6.70;99.90;;;6.15;90.70;99026.56;4119308;28;20027;-75
2021/01/22 06:36:20;;;;;;;2.97;2.67;;;6.60;99.90;;;6.10;89.84;99013.97;4119592;28;20030;-75
2021/01/22 06:38:23;;;;;;;4.07;3.47;;;6.50;99.90;;;6.04;90.29;99030.34;4135349;28;20030;-75
2021/01/22 06:40:25;;;;;;;6.43;3.05;;;6.50;99.90;;;6.01;90.92;99038.53;4107560;28;20027;-75
2021/01/22 06:42:26;;;;;;;3.10;2.80;;;6.40;99.90;;;5.95;91.57;99042.66;4134277;28;20493;-75
2021/01/22 06:44:27;;;;;;;3.88;3.25;;;6.30;99.90;;;6.03;91.37;99041.81;4119439;28;20030;-75
2021/01/22 06:46:30;;;;;;;7.15;3.28;;;6.30;99.90;;;6.07;90.76;99050.94;4119262;28;20062;-75
2021/01/22 06:49:01;;;;;;;5.78;2.45;;;6.40;99.90;;;5.86;90.25;99054.13;4135368;28;20409;-74
2021/01/22 06:51:15;;;;;;;5.03;2.92;;;6.40;99.90;;;5.98;90.51;99060.63;4113978;28;20030;-75
2021/01/22 06:53:17;;;;;;;4.32;2.92;;;6.40;99.90;;;5.94;91.44;99066.38;4117564;28;20030;-76
2021/01/22 06:55:18;;;;;;;3.95;3.10;;;6.30;99.90;;;6.04;90.33;99065.19;4104970;28;20054;-75
2021/01/22 06:57:19;;;;;;;3.75;2.92;;;6.40;99.90;;;5.99;90.91;99066.69;4118979;28;20088;-75
2021/01/22 06:59:28;;;;;;;3.80;3.10;;;6.30;99.90;;;5.99;91.16;99077.16;4110900;28;20517;-74
2021/01/22 07:01:34;;;;;;;4.32;3.30;;;6.30;99.90;;;5.80;91.72;99073.06;4115180;28;20085;-75
2021/01/22 07:03:37;;;;;;;3.42;3.05;;;6.30;99.90;;;5.91;92.04;99082.41;4118932;28;20078;-75
2021/01/22 07:05:40;;;;;;;6.28;2.97;;;6.20;99.90;;;5.88;90.90;99080.13;4119067;28;20034;-75
2021/01/22 07:07:46;;;;;;;6.65;3.10;;;6.20;99.90;;;5.84;91.12;99082.22;4135113;28;20030;-75
2021/01/22 07:09:47;;;;;;;4.38;3.13;;;6.20;99.90;;;5.83;91.23;99098.06;4118764;28;20060;-75
2021/01/22 07:11:54;;;;;;;4.40;4.00;;;6.20;99.90;;;5.85;90.46;99103.97;4114812;28;20027;-75
2021/01/22 07:13:55;;;;;;;5.45;3.20;;;6.10;99.90;;;5.69;91.85;99103.97;4118669;28;20038;-75
2021/01/22 07:16:10;;;;;;;5.18;3.45;;;6.00;99.90;;;5.69;90.69;99101.38;4102699;28;20527;-75
2021/01/22 07:18:11;;;;;;;4.10;3.28;;;6.10;99.90;;;5.65;90.10;99102.66;4106434;28;20034;-75
2021/01/22 07:20:12;;;;;;;5.72;3.05;;;6.00;99.90;;;5.59;91.09;99114.59;4120188;28;20042;-75
2021/01/22 07:22:15;;;;;;;4.63;3.03;;;6.00;99.90;;;5.52;91.72;99130.16;4120119;28;20035;-75
2021/01/22 07:24:18;;;;;;;5.07;3.15;;;5.90;99.90;;;5.53;90.86;99130.94;4118807;28;20438;-75
2021/01/22 07:26:19;;;;;;;4.43;3.03;;;5.90;99.90;;;5.47;90.47;99129.81;4112329;28;20118;-77
2021/01/22 07:28:24;;;;;;;5.95;2.92;;;5.80;99.90;;;5.43;90.99;99138.97;4108313;28;20035;-75
2021/01/22 07:30:40;;;;;;;3.58;3.25;;;5.70;99.90;;;5.61;90.61;99135.38;4114673;28;20034;-75
2021/01/22 07:32:48;;;;;;;3.85;2.60;;;5.80;99.90;;;5.50;91.26;99142.56;4118995;28;20404;-75
2021/01/22 07:34:52;;;;;;;7.28;4.95;;;5.80;99.90;;;5.34;91.65;99145.19;4116462;28;20033;-75
2021/01/22 07:36:53;;;;;;;5.60;3.30;;;5.80;99.90;;;5.57;90.06;99147.97;4108667;28;20019;-75
2021/01/22 07:38:55;;;;;;;5.93;3.03;;;5.80;99.90;;;5.64;90.71;99151.56;4102693;28;20459;-75
2021/01/22 07:40:57;;;;;;;4.70;2.92;;;5.80;99.90;;;5.70;89.99;99156.16;4102595;28;20031;-75
2021/01/22 07:42:58;;;;;;;4.25;3.30;;;5.90;99.90;;;5.59;90.08;99148.59;4102464;28;20506;-75
2021/01/22 07:45:25;;;;;;;4.55;3.15;;;5.90;99.90;;;5.49;90.12;99171.50;4102626;28;20031;-75
2021/01/22 07:47:29;;;;;;;4.90;3.17;;;5.80;99.90;;;5.52;90.09;99177.25;4100763;28;20471;-75
2021/01/22 07:49:31;;;;;;;5.60;3.65;;;5.80;99.90;;;5.41;90.17;99156.59;4102739;28;20035;-75
2021/01/22 07:51:39;;;;;;;4.18;3.33;;;5.80;99.90;;;5.44;90.64;99171.16;4103113;28;20051;-76
2021/01/22 07:53:41;;;;;;;6.53;3.85;;;5.80;99.90;;;5.28;91.61;99185.03;4116365;28;20051;-76
2021/01/22 07:55:50;;;;;;;9.52;3.90;;;5.70;99.90;;;5.32;91.66;99188.13;4134001;28;20041;-77
2021/01/22 07:58:03;;;;;;;5.72;3.38;;;5.70;99.90;;;5.27;91.59;99183.38;4103085;28;20044;-77
2021/01/22 08:00:13;;;;;;;6.82;3.47;;;5.70;99.90;;;5.26;92.19;99192.19;4104675;28;20035;-77
2021/01/22 08:02:22;;;;;;;6.28;3.67;;;5.60;99.90;;;5.13;92.15;99183.19;4106760;28;20031;-77
2021/01/22 08:04:29;;;;;;;6.68;3.45;;;5.60;99.90;;;5.26;91.23;99186.97;4121115;28;20541;-77
2021/01/22 08:06:50;;;;;;;9.38;3.80;;;5.60;99.90;;;5.37;91.59;99210.22;4122558;28;20031;-77
2021/01/22 08:09:12;;;;;;;5.65;3.95;;;5.60;99.90;;;5.25;91.97;99211.50;4121227;28;20035;-76
2021/01/22 08:11:20;;;;;;;6.70;3.72;;;5.70;99.90;;;5.35;90.79;99212.16;4108891;28;20127;-76
2021/01/22 08:13:21;;;;;;;6.75;3.80;;;5.60;99.90;;;5.26;91.26;99213.13;4105096;28;20485;-76
2021/01/22 08:15:23;;;;;;;6.28;4.30;;;5.60;99.90;;;5.45;90.63;99222.47;4089558;29;20042;-75
2021/01/22 08:17:25;;;;;;;4.80;4.25;;;5.70;99.90;;;5.31;90.88;99207.41;4105151;28;20035;-76
2021/01/22 08:19:26;;;;;;;8.73;3.65;;;5.70;99.90;;;5.44;90.48;99232.13;4121121;28;20034;-75
2021/01/22 08:21:30;;;;;;;5.70;4.00;;;5.70;99.90;;;5.35;91.64;99230.47;4121268;28;20050;-75
2021/01/22 08:23:34;;;;;;;5.77;3.97;;;5.70;99.90;;;5.43;90.23;99222.66;4104881;28;20027;-74
2021/01/22 08:25:38;;;;;;;6.13;3.83;;;5.70;99.90;;;5.43;90.86;99235.72;4130857;28;20273;-75
2021/01/22 08:27:39;;;;;;;6.53;4.20;;;5.70;99.90;;;5.33;91.77;99242.06;4125125;28;20042;-75
2021/01/22 08:29:42;;;;;;;6.45;3.53;;;5.70;99.90;;;5.22;91.38;99247.59;4115012;28;20033;-75
2021/01/22 08:31:43;;;;;;;5.03;3.42;;;5.70;99.90;;;5.13;91.67;99244.13;4128553;28;20085;-75
2021/01/22 08:33:45;;;;;;;6.25;3.88;;;5.60;99.90;;;5.30;91.58;99258.88;4120793;28;20031;-75
2021/01/22 08:35:46;;;;;;;7.82;4.30;;;5.70;99.90;;;5.43;89.94;99246.19;4137252;28;20528;-75
2021/01/22 08:37:47;;;;;;;5.82;3.90;;;5.70;99.90;;;5.38;91.00;99245.84;4137353;28;20026;-75
2021/01/22 08:40:00;;;;;;;9.85;4.47;;;5.80;99.90;;;5.49;90.18;99276.94;4121075;28;20027;-75
2021/01/22 08:42:13;;;;;;;6.57;4.88;;;5.80;99.90;;;5.43;90.24;99264.50;4109851;28;20020;-75
2021/01/22 08:44:14;;;;;;;8.23;5.28;;;5.80;99.90;;;5.57;89.16;99268.28;4104929;28;20030;-75
2021/01/22 08:46:17;;;;;;;12.00;7.38;;;5.90;99.90;;;5.56;89.39;99253.56;4089221;29;20055;-75
2021/01/22 08:48:17;;;;;;;8.30;4.40;;;6.00;99.90;;;5.62;89.54;99286.91;4105142;28;20058;-75
2021/01/22 08:50:19;;;;;;;7.60;4.30;;;6.00;99.90;;;5.82;88.34;99292.69;4104975;28;20554;-75